Aeroporto :
LOGIN :

Iscrizione | Disclaimer

   EN    FR    IT 

 










Sommario :    VFR   VFR Marginale   IFR   IFR Intensivo   IFR Molto Intensivo
Visibilità : 
Base nubi : 
>= 8 km
>= 3000ft
5 / 8 km
1000 / 3000 ft
1500m / 5 km
500 / 1000 ft
800 / 1500m
200 / 500 ft
< 800m
< 200 ft
Simboli :   Temporali  Nebbia  Neve Forte  Precipitazioni Forti  Vento > 20 kt
SIGMETs :   Varie  Temporali  Ghiacco  Turbolenza  Onda orograficha  Ceneri Vulcaniche






- Altitudine del aeroporto : 19 ft
- Codice IATA : BEB


EGPL - Benbecula

ULTIMO METAR :
  • 011850Z 02009KT 9999 FEW020 08/06 Q0996 RESHRA

METARs OBSOLETI :
  • 011820Z AUTO 02006KT 9999 NCD 08/07 Q0996
  • 011750Z AUTO 04006KT 9999 BKN040/// 08/07 Q0996
  • 011720Z AUTO 03010KT 4500 -DZ SCT005/// BKN018/// BKN028/// 08/07 Q0996
  • 011650Z AUTO 03006KT 9999 -RA SCT035/// BKN046/// 09/07 Q0996
  • 011620Z AUTO 06005KT 9999 -RA FEW022/// BKN035/// 09/07 Q0996

Previsioni scadute.
ATIS : +44 1870 604 818



MetMap, La meteo Aeronautica in un colpo d'occhio ! - Copyright ORBIFLY Dicembre 2007 - Disclaimer

ORBIFLY MET'MAP TEAM :

Programmazione e sviluppo : Alexandra Zaïnal
Concezione : Baudouin d'Aumeries
Aiuto per la programmazione : Marc-Olivier Méhu
Supporto tecnico e logistico : Manuel Goepfert
Aiuto per la traduzione : Arnaldo La Scala

Contatto : metmap@orbifly.com




FONTI E CREDITI :

   NOAA